createdAt,value
2022-12-26T00:00:23.914Z,57.91
2022-12-26T00:01:23.811Z,55.69
2022-12-26T00:02:23.838Z,56.03
2022-12-26T00:03:23.898Z,44.77
2022-12-26T00:04:52.302Z,48.05
2022-12-26T00:05:24.750Z,52.36
2022-12-26T00:06:23.754Z,60.85
2022-12-26T00:07:23.743Z,48.78
2022-12-26T00:08:23.731Z,54.39
2022-12-26T00:09:23.736Z,55.11
2022-12-26T00:10:23.707Z,57.38
2022-12-26T00:11:23.695Z,59.80
2022-12-26T00:12:23.700Z,56.53
2022-12-26T00:13:39.913Z,53.55
2022-12-26T00:14:24.687Z,58.99
2022-12-26T00:15:23.672Z,55.39
2022-12-26T00:16:23.689Z,58.95
2022-12-26T00:17:23.647Z,61.08
2022-12-26T00:18:23.637Z,59.80
2022-12-26T00:19:23.623Z,59.95
2022-12-26T00:22:29.896Z,55.74
2022-12-26T00:23:29.897Z,55.74
2022-12-26T00:24:29.894Z,58.70
2022-12-26T00:25:30.967Z,51.85
2022-12-26T00:28:24.388Z,54.48
2022-12-26T00:29:25.375Z,46.80
2022-12-26T00:30:24.368Z,59.40
2022-12-26T00:31:25.310Z,54.60
2022-12-26T00:32:25.490Z,59.15
2022-12-26T00:33:25.436Z,58.08
2022-12-26T00:34:25.477Z,50.85
2022-12-26T00:35:25.441Z,56.16
2022-12-26T00:36:25.436Z,58.18
2022-12-26T00:37:25.410Z,60.01
2022-12-26T00:38:25.403Z,53.99
2022-12-26T00:39:25.396Z,60.31
2022-12-26T00:40:25.386Z,57.61
2022-12-26T00:41:25.379Z,51.10
2022-12-26T00:44:32.260Z,59.31
2022-12-26T00:45:32.251Z,59.70
2022-12-26T00:46:33.432Z,60.74
2022-12-26T00:47:33.342Z,55.76
2022-12-26T00:48:33.322Z,60.86
2022-12-26T00:50:14.948Z,53.33
2022-12-26T00:50:34.993Z,52.66
2022-12-26T00:51:34.302Z,46.99
2022-12-26T00:52:35.080Z,47.38
2022-12-26T00:53:33.274Z,47.12
2022-12-26T00:54:33.278Z,57.04
2022-12-26T00:55:33.257Z,48.01
2022-12-26T00:56:33.253Z,59.10
2022-12-26T00:57:34.253Z,57.82
2022-12-26T00:58:33.241Z,48.19
2022-12-26T00:59:33.229Z,56.06
2022-12-26T01:00:33.241Z,55.97
2022-12-26T01:01:35.256Z,48.83
2022-12-26T01:02:33.334Z,54.24
2022-12-26T01:03:35.072Z,56.72
2022-12-26T01:04:33.192Z,52.20
2022-12-26T01:05:33.190Z,44.70
2022-12-26T01:06:33.177Z,53.89
2022-12-26T01:07:33.166Z,51.71
2022-12-26T01:08:33.152Z,53.78
2022-12-26T01:09:33.137Z,59.46
2022-12-26T01:10:35.661Z,56.65
2022-12-26T01:11:33.127Z,53.99
2022-12-26T01:12:33.137Z,55.64
2022-12-26T01:13:33.117Z,53.69
2022-12-26T01:14:34.094Z,58.22
2022-12-26T01:15:33.096Z,59.79
2022-12-26T01:16:33.186Z,57.19
2022-12-26T01:17:33.096Z,52.65
2022-12-26T01:18:33.115Z,57.16
2022-12-26T01:19:33.060Z,53.82
2022-12-26T01:20:33.067Z,57.09
2022-12-26T01:21:33.058Z,60.47
2022-12-26T01:22:33.041Z,60.33
2022-12-26T01:23:33.036Z,54.70
2022-12-26T01:24:33.026Z,59.61
2022-12-26T01:25:33.007Z,47.45
2022-12-26T01:26:33.010Z,52.30
2022-12-26T01:27:32.998Z,60.31
2022-12-26T01:28:33.031Z,57.82
2022-12-26T01:29:32.993Z,52.77
2022-12-26T01:30:32.976Z,50.86
2022-12-26T01:31:33.635Z,59.38
2022-12-26T01:32:32.990Z,60.24
2022-12-26T01:33:32.939Z,52.53
2022-12-26T01:34:32.942Z,40.19
2022-12-26T01:35:32.933Z,43.52
2022-12-26T01:36:32.941Z,55.51
2022-12-26T01:37:33.183Z,52.80
2022-12-26T01:38:32.896Z,54.86
2022-12-26T01:39:32.891Z,47.81
2022-12-26T01:40:32.895Z,60.75
2022-12-26T01:41:33.672Z,47.63
2022-12-26T01:42:32.882Z,54.10
2022-12-26T01:43:32.865Z,59.23
2022-12-26T01:44:32.852Z,49.59
2022-12-26T01:45:32.928Z,50.29
2022-12-26T01:46:32.850Z,53.40
2022-12-26T01:47:32.843Z,50.13
2022-12-26T01:48:32.830Z,52.69
2022-12-26T01:49:32.838Z,44.50
2022-12-26T01:50:32.816Z,46.09
2022-12-26T01:51:32.808Z,39.18
2022-12-26T01:52:32.798Z,59.16
2022-12-26T01:53:32.781Z,56.85
2022-12-26T01:54:37.602Z,50.34
2022-12-26T01:55:33.791Z,55.88
2022-12-26T01:56:32.769Z,53.25
2022-12-26T01:57:32.756Z,57.29
2022-12-26T01:58:32.816Z,39.86
2022-12-26T01:59:32.735Z,42.80
2022-12-26T02:00:32.737Z,47.25
2022-12-26T02:01:32.942Z,51.54
2022-12-26T02:02:32.795Z,56.29
2022-12-26T02:03:32.710Z,53.67
2022-12-26T02:04:32.696Z,57.69
2022-12-26T02:05:32.699Z,51.45
2022-12-26T02:06:32.681Z,52.33
2022-12-26T02:07:32.673Z,38.93
2022-12-26T02:08:32.668Z,38.16
2022-12-26T02:09:32.650Z,37.65
2022-12-26T02:10:32.647Z,38.13
2022-12-26T02:11:33.600Z,43.54
2022-12-26T02:12:34.238Z,53.58
2022-12-26T02:13:33.620Z,39.06
2022-12-26T02:14:32.619Z,52.81
2022-12-26T02:15:32.618Z,41.59
2022-12-26T02:16:32.666Z,48.86
2022-12-26T02:17:32.611Z,47.45
2022-12-26T02:18:32.594Z,56.18
2022-12-26T02:19:32.588Z,49.49
2022-12-26T02:20:32.582Z,54.80
2022-12-26T02:21:32.601Z,53.65
2022-12-26T02:22:32.553Z,55.85
2022-12-26T02:23:32.564Z,58.59
2022-12-26T02:24:32.538Z,54.37
2022-12-26T02:25:32.538Z,53.77
2022-12-26T02:26:32.509Z,44.76
2022-12-26T02:27:32.513Z,57.54
2022-12-26T02:28:32.500Z,58.68
2022-12-26T02:29:32.492Z,61.64
2022-12-26T02:30:32.487Z,50.45
2022-12-26T02:31:32.536Z,42.60
2022-12-26T02:32:32.480Z,55.06
2022-12-26T02:33:32.455Z,49.52
2022-12-26T02:34:32.455Z,39.52
2022-12-26T02:35:32.441Z,39.17
2022-12-26T02:36:32.431Z,57.60
2022-12-26T02:37:32.442Z,51.30
2022-12-26T02:38:32.419Z,47.42
2022-12-26T02:39:45.226Z,48.24
2022-12-26T02:40:33.408Z,50.90
2022-12-26T02:41:32.397Z,46.06
2022-12-26T02:42:32.386Z,53.94
2022-12-26T02:43:32.381Z,55.83
2022-12-26T02:44:32.366Z,50.76
2022-12-26T02:45:32.434Z,56.57
2022-12-26T02:46:32.434Z,56.22
2022-12-26T02:47:32.338Z,46.57
2022-12-26T02:48:32.337Z,43.17
2022-12-26T02:49:32.332Z,59.44
2022-12-26T02:50:32.310Z,50.76
2022-12-26T02:51:32.320Z,57.31
2022-12-26T02:52:32.300Z,52.56
2022-12-26T02:53:33.208Z,47.22
2022-12-26T02:54:32.277Z,48.06
2022-12-26T02:55:32.285Z,38.12
2022-12-26T02:56:32.269Z,52.54
2022-12-26T02:57:32.256Z,52.91
2022-12-26T02:58:32.265Z,48.66
2022-12-26T02:59:54.406Z,54.97
2022-12-26T03:00:33.237Z,59.83
2022-12-26T03:01:32.335Z,47.82
2022-12-26T03:02:32.443Z,53.00
2022-12-26T03:03:32.343Z,51.63
2022-12-26T03:04:32.202Z,56.47
2022-12-26T03:05:32.183Z,38.76
2022-12-26T03:06:33.198Z,38.30
2022-12-26T03:07:32.189Z,37.77
2022-12-26T03:08:32.156Z,43.01
2022-12-26T03:09:33.168Z,56.26
2022-12-26T03:10:32.146Z,49.97
2022-12-26T03:11:32.145Z,45.12
2022-12-26T03:12:32.157Z,52.65
2022-12-26T03:13:32.138Z,49.74
2022-12-26T03:14:32.124Z,45.77
2022-12-26T03:15:32.126Z,53.21
2022-12-26T03:16:32.212Z,49.19
2022-12-26T03:17:32.103Z,53.95
2022-12-26T03:18:57.044Z,48.43
2022-12-26T03:19:33.105Z,48.52
2022-12-26T03:20:32.082Z,52.52
2022-12-26T03:21:32.080Z,48.11
2022-12-26T03:22:32.084Z,45.89
2022-12-26T03:23:32.687Z,48.38
2022-12-26T03:24:32.050Z,52.06
2022-12-26T03:25:32.032Z,51.08
2022-12-26T03:26:32.024Z,47.72
2022-12-26T03:27:32.597Z,51.81
2022-12-26T03:28:32.691Z,40.22
2022-12-26T03:29:32.012Z,38.22
2022-12-26T03:30:32.040Z,40.95
2022-12-26T03:31:31.989Z,53.75
2022-12-26T03:32:31.983Z,40.84
2022-12-26T03:33:31.980Z,47.98
2022-12-26T03:34:31.977Z,54.85
2022-12-26T03:35:31.961Z,39.50
2022-12-26T03:36:31.969Z,50.35
2022-12-26T03:37:47.830Z,53.07
2022-12-26T03:38:32.943Z,55.23
2022-12-26T03:39:31.918Z,40.42
2022-12-26T03:40:31.918Z,39.39
2022-12-26T03:41:31.915Z,43.00
2022-12-26T03:42:31.896Z,58.23
2022-12-26T03:43:31.900Z,51.48
2022-12-26T03:44:31.893Z,49.84
2022-12-26T03:45:31.869Z,52.13
2022-12-26T03:46:31.934Z,51.84
2022-12-26T03:47:31.857Z,51.53
2022-12-26T03:48:31.848Z,49.05
2022-12-26T03:49:31.849Z,54.07
2022-12-26T03:50:31.837Z,43.01
2022-12-26T03:51:31.827Z,58.45
2022-12-26T03:52:31.821Z,53.56
2022-12-26T03:53:31.815Z,56.12
2022-12-26T03:54:31.816Z,48.93
2022-12-26T03:55:31.790Z,54.57
2022-12-26T03:56:32.839Z,53.42
2022-12-26T03:57:32.793Z,55.06
2022-12-26T03:58:31.796Z,54.83
2022-12-26T03:59:31.817Z,54.74
2022-12-26T04:00:31.786Z,50.01
2022-12-26T04:01:31.791Z,55.22
2022-12-26T04:02:31.899Z,52.80
2022-12-26T04:03:31.763Z,52.81
2022-12-26T04:04:31.735Z,53.14
2022-12-26T04:05:31.744Z,55.72
2022-12-26T04:06:31.734Z,53.24
2022-12-26T04:07:31.707Z,54.97
2022-12-26T04:08:31.715Z,51.31
2022-12-26T04:09:31.703Z,57.65
2022-12-26T04:10:31.685Z,50.48
2022-12-26T04:11:31.674Z,46.77
2022-12-26T04:12:31.663Z,45.08
2022-12-26T04:13:31.672Z,58.47
2022-12-26T04:14:31.658Z,53.91
2022-12-26T04:15:31.685Z,55.16
2022-12-26T04:16:31.652Z,45.72
2022-12-26T04:17:31.630Z,45.30
2022-12-26T04:18:31.621Z,47.63
2022-12-26T04:19:31.634Z,56.94
2022-12-26T04:20:32.212Z,51.08
2022-12-26T04:21:31.586Z,47.75
2022-12-26T04:22:31.588Z,53.68
2022-12-26T04:23:31.589Z,51.17
2022-12-26T04:24:31.573Z,52.91
2022-12-26T04:25:50.155Z,57.28
2022-12-26T04:26:32.549Z,49.03
2022-12-26T04:27:31.570Z,58.89
2022-12-26T04:28:31.551Z,57.87
2022-12-26T04:29:32.138Z,55.28
2022-12-26T04:30:31.632Z,56.99
2022-12-26T04:31:31.595Z,49.30
2022-12-26T04:32:31.500Z,58.88
2022-12-26T04:33:31.504Z,56.90
2022-12-26T04:34:31.521Z,54.54
2022-12-26T04:35:31.489Z,51.88
2022-12-26T04:36:31.473Z,58.13
2022-12-26T04:37:31.461Z,54.13
2022-12-26T04:38:31.476Z,56.00
2022-12-26T04:39:31.449Z,52.71
2022-12-26T04:40:31.450Z,49.88
2022-12-26T04:41:31.444Z,48.80
2022-12-26T04:42:31.423Z,45.25
2022-12-26T04:43:46.639Z,55.20
2022-12-26T04:44:32.422Z,54.87
2022-12-26T04:45:31.400Z,61.68
2022-12-26T04:46:31.523Z,54.57
2022-12-26T04:47:31.393Z,48.52
2022-12-26T04:48:31.377Z,42.39
2022-12-26T04:49:31.390Z,57.74
2022-12-26T04:50:31.372Z,56.58
2022-12-26T04:51:31.360Z,51.43
2022-12-26T04:52:31.345Z,48.85
2022-12-26T04:53:31.339Z,43.62
2022-12-26T04:54:31.323Z,43.83
2022-12-26T04:55:31.346Z,50.63
2022-12-26T04:56:31.329Z,41.59
2022-12-26T04:57:31.303Z,47.86
2022-12-26T04:58:31.298Z,55.09
2022-12-26T04:59:31.278Z,50.58
2022-12-26T05:00:31.274Z,50.74
2022-12-26T05:01:31.430Z,47.34
2022-12-26T05:02:31.436Z,51.92
2022-12-26T05:03:31.278Z,55.11
2022-12-26T05:04:31.253Z,48.39
2022-12-26T05:05:32.135Z,47.43
2022-12-26T05:06:31.229Z,51.77
2022-12-26T05:07:31.225Z,49.91
2022-12-26T05:08:31.212Z,43.57
2022-12-26T05:09:31.203Z,51.49
2022-12-26T05:10:31.193Z,55.28
2022-12-26T05:11:31.205Z,47.21
2022-12-26T05:12:31.189Z,54.38
2022-12-26T05:13:31.173Z,50.58
2022-12-26T05:16:37.926Z,57.40
2022-12-26T05:17:37.930Z,47.71
2022-12-26T05:18:37.938Z,51.76
2022-12-26T05:19:37.905Z,51.55
2022-12-26T05:20:37.896Z,47.25
2022-12-26T05:21:37.912Z,50.39
2022-12-26T05:22:37.890Z,49.57
2022-12-26T05:23:37.904Z,53.77
2022-12-26T05:24:37.872Z,48.88
2022-12-26T05:25:38.952Z,56.87
2022-12-26T05:26:38.956Z,47.41
2022-12-26T05:27:38.936Z,40.42
2022-12-26T05:28:38.941Z,52.63
2022-12-26T05:29:38.919Z,53.97
2022-12-26T05:30:38.932Z,55.14
2022-12-26T05:31:38.966Z,50.42
2022-12-26T05:32:38.892Z,52.83
2022-12-26T05:33:38.902Z,46.05
2022-12-26T05:34:39.398Z,51.47
2022-12-26T05:35:38.904Z,60.43
2022-12-26T05:36:38.881Z,54.63
2022-12-26T05:37:38.899Z,56.35
2022-12-26T05:38:38.857Z,50.94
2022-12-26T05:39:38.841Z,50.84
2022-12-26T05:40:38.853Z,49.78
2022-12-26T05:41:38.828Z,59.33
2022-12-26T05:42:38.846Z,48.65
2022-12-26T05:43:38.809Z,54.88
2022-12-26T05:44:39.817Z,56.23
2022-12-26T05:45:38.797Z,49.70
2022-12-26T05:46:38.844Z,54.50
2022-12-26T05:47:38.788Z,54.20
2022-12-26T05:48:38.777Z,51.66
2022-12-26T05:49:38.776Z,43.18
2022-12-26T05:50:38.746Z,56.42
2022-12-26T05:51:39.758Z,55.78
2022-12-26T05:52:38.757Z,50.07
2022-12-26T05:53:38.744Z,52.49
2022-12-26T05:54:38.739Z,57.42
2022-12-26T05:55:38.721Z,53.90
2022-12-26T05:56:40.906Z,46.63
2022-12-26T05:57:40.301Z,56.00
2022-12-26T05:58:38.699Z,55.39
2022-12-26T05:59:38.686Z,53.54
2022-12-26T06:00:38.675Z,52.07
2022-12-26T06:01:38.845Z,54.72
2022-12-26T06:02:38.783Z,52.04
2022-12-26T06:03:38.743Z,51.53
2022-12-26T06:04:38.643Z,52.95
2022-12-26T06:05:38.641Z,51.88
2022-12-26T06:06:38.647Z,50.72
2022-12-26T06:07:38.622Z,49.34
2022-12-26T06:08:38.613Z,45.19
2022-12-26T06:09:38.622Z,49.32
2022-12-26T06:10:38.617Z,56.40
2022-12-26T06:11:42.530Z,41.87
2022-12-26T06:12:39.593Z,46.58
2022-12-26T06:13:38.573Z,49.74
2022-12-26T06:14:38.573Z,52.12
2022-12-26T06:15:38.564Z,44.35
2022-12-26T06:16:38.629Z,50.66
2022-12-26T06:17:38.539Z,45.21
2022-12-26T06:18:38.530Z,56.47
2022-12-26T06:19:44.679Z,41.62
2022-12-26T06:20:40.528Z,53.54
2022-12-26T06:21:38.508Z,50.49
2022-12-26T06:22:38.510Z,45.79
2022-12-26T06:23:38.499Z,46.66
2022-12-26T06:24:38.467Z,50.97
2022-12-26T06:25:39.497Z,52.30
2022-12-26T06:26:38.486Z,55.96
2022-12-26T06:27:38.484Z,56.68
2022-12-26T06:28:38.465Z,48.81
2022-12-26T06:29:39.443Z,43.73
2022-12-26T06:30:38.444Z,55.83
2022-12-26T06:31:38.468Z,50.72
2022-12-26T06:32:38.417Z,52.63
2022-12-26T06:33:38.419Z,53.60
2022-12-26T06:34:38.408Z,46.01
2022-12-26T06:35:38.402Z,55.16
2022-12-26T06:36:38.393Z,55.18
2022-12-26T06:37:38.517Z,57.40
2022-12-26T06:38:38.371Z,50.31
2022-12-26T06:39:39.901Z,46.31
2022-12-26T06:40:38.362Z,57.55
2022-12-26T06:41:38.373Z,52.61
2022-12-26T06:42:38.348Z,57.26
2022-12-26T06:43:38.341Z,51.29
2022-12-26T06:44:38.331Z,51.57
2022-12-26T06:45:38.327Z,52.29
2022-12-26T06:46:38.359Z,51.97
2022-12-26T06:47:38.319Z,59.09
2022-12-26T06:48:38.302Z,52.50
2022-12-26T06:49:38.288Z,47.62
2022-12-26T06:50:38.290Z,44.65
2022-12-26T06:51:38.302Z,53.80
2022-12-26T06:52:38.267Z,59.81
2022-12-26T06:53:38.279Z,56.15
2022-12-26T06:54:38.256Z,55.42
2022-12-26T06:55:38.241Z,54.81
2022-12-26T06:56:38.231Z,42.18
2022-12-26T06:57:38.223Z,47.90
2022-12-26T06:58:38.233Z,55.02
2022-12-26T06:59:38.234Z,44.95
2022-12-26T07:00:38.248Z,50.00
2022-12-26T07:01:38.454Z,50.08
2022-12-26T07:02:38.337Z,54.61
2022-12-26T07:03:38.197Z,45.26
2022-12-26T07:04:38.177Z,54.03
2022-12-26T07:05:38.188Z,53.39
2022-12-26T07:06:38.161Z,50.78
2022-12-26T07:07:38.160Z,53.86
2022-12-26T07:08:38.827Z,54.34
2022-12-26T07:09:38.128Z,56.44
2022-12-26T07:10:38.116Z,54.79
2022-12-26T07:11:38.113Z,53.92
2022-12-26T07:12:38.133Z,52.32
2022-12-26T07:13:38.120Z,42.50
2022-12-26T07:14:38.088Z,49.95
2022-12-26T07:15:38.091Z,57.75
2022-12-26T07:16:38.114Z,53.12
2022-12-26T07:17:38.076Z,45.06
2022-12-26T07:18:38.123Z,54.99
2022-12-26T07:19:38.066Z,57.40
2022-12-26T07:20:38.051Z,56.10
2022-12-26T07:21:40.672Z,58.99
2022-12-26T07:22:39.020Z,61.82
2022-12-26T07:23:38.023Z,54.71
2022-12-26T07:24:38.014Z,53.33
2022-12-26T07:25:38.004Z,57.52
2022-12-26T07:26:37.998Z,52.52
2022-12-26T07:27:37.982Z,52.85
2022-12-26T07:28:37.984Z,58.32
2022-12-26T07:29:38.047Z,55.84
2022-12-26T07:30:38.913Z,49.55
2022-12-26T07:31:38.003Z,52.78
2022-12-26T07:32:41.905Z,54.32
2022-12-26T07:33:37.961Z,55.11
2022-12-26T07:34:39.011Z,59.36
2022-12-26T07:35:38.982Z,58.83
2022-12-26T07:36:37.926Z,59.72
2022-12-26T07:37:37.898Z,60.12
2022-12-26T07:38:38.087Z,61.16
2022-12-26T07:39:37.892Z,61.04
2022-12-26T07:40:37.977Z,59.68
2022-12-26T07:41:37.867Z,51.76
2022-12-26T07:42:39.405Z,58.71
2022-12-26T07:43:38.852Z,61.16
2022-12-26T07:44:37.931Z,62.47
2022-12-26T07:45:45.042Z,62.30
2022-12-26T07:46:39.995Z,58.30
2022-12-26T07:47:37.828Z,61.64
2022-12-26T07:48:37.821Z,57.35
2022-12-26T07:49:37.830Z,64.95
2022-12-26T07:50:37.803Z,63.47
2022-12-26T07:51:37.792Z,61.23
2022-12-26T07:52:37.844Z,59.51
2022-12-26T07:53:37.786Z,62.97
2022-12-26T07:54:37.773Z,61.90
2022-12-26T07:55:37.769Z,60.79
2022-12-26T07:56:37.752Z,58.38
2022-12-26T07:57:48.764Z,59.80
2022-12-26T07:58:39.734Z,59.25
2022-12-26T07:59:37.726Z,54.40
2022-12-26T08:00:38.340Z,64.01
2022-12-26T08:01:37.789Z,59.76
2022-12-26T08:02:39.090Z,61.61
2022-12-26T08:03:37.771Z,59.20
2022-12-26T08:04:37.691Z,63.91
2022-12-26T08:05:37.681Z,59.84
2022-12-26T08:06:37.666Z,63.72
2022-12-26T08:07:37.671Z,62.68
2022-12-26T08:08:42.897Z,61.13
2022-12-26T08:09:38.658Z,60.53
2022-12-26T08:10:39.413Z,58.01
2022-12-26T08:11:37.657Z,60.84
2022-12-26T08:12:37.617Z,62.73
2022-12-26T08:13:37.610Z,66.38
2022-12-26T08:14:37.616Z,62.71
2022-12-26T08:15:37.601Z,61.59
2022-12-26T08:16:37.633Z,59.90
2022-12-26T08:17:37.633Z,62.92
2022-12-26T08:18:37.588Z,63.54
2022-12-26T08:19:37.557Z,65.32
2022-12-26T08:20:37.555Z,68.22
2022-12-26T08:21:37.551Z,63.32
2022-12-26T08:22:37.536Z,59.82
2022-12-26T08:23:37.532Z,58.95
2022-12-26T08:24:37.531Z,61.38
2022-12-26T08:25:37.513Z,63.60
2022-12-26T08:26:37.516Z,57.75
2022-12-26T08:27:37.544Z,64.37
2022-12-26T08:28:37.510Z,58.22
2022-12-26T08:29:37.481Z,57.00
2022-12-26T08:30:37.488Z,61.26
2022-12-26T08:31:37.489Z,58.92
2022-12-26T08:32:39.533Z,60.80
2022-12-26T08:33:38.461Z,65.47
2022-12-26T08:34:41.394Z,62.34
2022-12-26T08:35:37.446Z,62.49
2022-12-26T08:36:37.421Z,58.51
2022-12-26T08:37:38.439Z,62.34
2022-12-26T08:38:37.437Z,56.97
2022-12-26T08:39:37.411Z,61.48
2022-12-26T08:40:44.620Z,64.71
2022-12-26T08:41:39.399Z,57.75
2022-12-26T08:42:44.774Z,60.33
2022-12-26T08:44:24.411Z,59.92
2022-12-26T08:44:39.373Z,57.98
2022-12-26T08:45:37.382Z,61.76
2022-12-26T08:46:37.366Z,61.90
2022-12-26T08:47:37.350Z,62.67
2022-12-26T08:48:37.334Z,62.40
2022-12-26T08:49:37.334Z,63.10
2022-12-26T08:50:40.988Z,59.91
2022-12-26T08:51:38.342Z,65.19
2022-12-26T08:52:37.855Z,62.18
2022-12-26T08:53:37.313Z,58.99
2022-12-26T08:54:37.286Z,60.16
2022-12-26T08:55:37.296Z,63.00
2022-12-26T08:56:37.280Z,57.93
2022-12-26T08:57:37.266Z,62.13
2022-12-26T08:58:37.299Z,61.99
2022-12-26T08:59:37.244Z,63.97
2022-12-26T09:00:37.244Z,63.52
2022-12-26T09:01:37.398Z,61.27
2022-12-26T09:02:37.494Z,63.32
2022-12-26T09:03:37.219Z,61.19
2022-12-26T09:04:37.202Z,59.25
2022-12-26T09:05:37.201Z,59.79
2022-12-26T09:06:37.212Z,63.94
2022-12-26T09:07:37.179Z,62.54
2022-12-26T09:08:37.230Z,59.64
2022-12-26T09:09:37.155Z,59.38
2022-12-26T09:10:37.167Z,59.25
2022-12-26T09:11:37.152Z,60.83
2022-12-26T09:12:37.157Z,63.09
2022-12-26T09:13:37.135Z,67.75
2022-12-26T09:14:37.122Z,63.55
2022-12-26T09:15:37.123Z,68.04
2022-12-26T09:16:40.811Z,64.08
2022-12-26T09:17:39.115Z,64.49
2022-12-26T09:18:37.097Z,62.61
2022-12-26T09:19:37.106Z,65.82
2022-12-26T09:20:37.085Z,63.82
2022-12-26T09:21:37.863Z,68.24
2022-12-26T09:22:37.073Z,62.91
2022-12-26T09:23:37.065Z,59.87
2022-12-26T09:24:37.056Z,62.45
2022-12-26T09:25:37.065Z,61.30
2022-12-26T09:26:37.092Z,60.34
2022-12-26T09:27:37.033Z,64.85
2022-12-26T09:28:37.023Z,62.20
2022-12-26T09:29:37.937Z,57.66
2022-12-26T09:30:37.072Z,65.07
2022-12-26T09:31:37.002Z,63.84
2022-12-26T09:32:37.992Z,60.89
2022-12-26T09:33:36.987Z,63.02
2022-12-26T09:34:36.994Z,66.13
2022-12-26T09:35:36.971Z,64.02
2022-12-26T09:36:37.018Z,64.33
2022-12-26T09:37:36.961Z,65.27
2022-12-26T09:38:36.948Z,65.83
2022-12-26T09:39:36.943Z,65.30
2022-12-26T09:40:36.934Z,61.92
2022-12-26T09:41:36.933Z,60.48
2022-12-26T09:42:36.925Z,59.23
2022-12-26T09:43:37.443Z,61.72
2022-12-26T09:44:36.889Z,59.00
2022-12-26T09:45:36.885Z,64.14
2022-12-26T09:46:37.022Z,65.26
2022-12-26T09:47:36.876Z,62.50
2022-12-26T09:48:36.859Z,62.01
2022-12-26T09:49:36.872Z,60.19
2022-12-26T09:50:42.683Z,62.67
2022-12-26T09:51:39.364Z,64.18
2022-12-26T09:52:36.844Z,65.05
2022-12-26T09:53:36.825Z,63.17
2022-12-26T09:54:36.819Z,63.87
2022-12-26T09:55:36.808Z,64.10
2022-12-26T09:57:01.934Z,65.36
2022-12-26T09:57:38.793Z,62.24
2022-12-26T09:58:36.786Z,66.44
2022-12-26T09:59:36.778Z,63.87
2022-12-26T10:00:36.778Z,62.43
2022-12-26T10:01:36.899Z,65.04
2022-12-26T10:02:36.763Z,65.11
2022-12-26T10:03:36.743Z,68.80
2022-12-26T10:04:36.750Z,66.69
2022-12-26T10:05:36.733Z,62.82
2022-12-26T10:06:36.724Z,65.04
2022-12-26T10:07:36.701Z,65.49
2022-12-26T10:08:36.707Z,66.61
2022-12-26T10:09:36.698Z,65.64
2022-12-26T10:10:36.690Z,65.92
2022-12-26T10:11:36.680Z,62.16
2022-12-26T10:12:36.703Z,66.61
2022-12-26T10:13:36.667Z,66.86
2022-12-26T10:14:36.697Z,60.13
2022-12-26T10:15:36.687Z,66.32
2022-12-26T10:16:37.405Z,65.82
2022-12-26T10:17:36.639Z,62.91
2022-12-26T10:18:36.612Z,68.59
2022-12-26T10:19:36.625Z,64.42
2022-12-26T10:20:36.607Z,68.33
2022-12-26T10:21:36.595Z,68.95
2022-12-26T10:22:36.580Z,66.48
2022-12-26T10:23:36.582Z,63.69
2022-12-26T10:24:36.561Z,66.69
2022-12-26T10:25:36.563Z,67.08
2022-12-26T10:26:36.547Z,63.91
2022-12-26T10:27:38.377Z,65.42
2022-12-26T10:28:36.549Z,67.09
2022-12-26T10:29:36.546Z,63.67
2022-12-26T10:30:36.519Z,69.08
2022-12-26T10:31:36.523Z,66.05
2022-12-26T10:32:36.511Z,65.21
2022-12-26T10:33:36.502Z,67.87
2022-12-26T10:34:36.504Z,64.28
2022-12-26T10:35:36.488Z,65.63
2022-12-26T10:36:36.476Z,66.18
2022-12-26T10:37:36.464Z,66.45
2022-12-26T10:38:38.976Z,63.69
2022-12-26T10:39:36.462Z,66.32
2022-12-26T10:40:36.437Z,66.52
2022-12-26T10:41:36.462Z,65.67
2022-12-26T10:42:37.383Z,65.51
2022-12-26T10:43:36.417Z,64.19
2022-12-26T10:44:36.409Z,62.35
2022-12-26T10:45:36.413Z,64.38
2022-12-26T10:46:36.511Z,68.36
2022-12-26T10:47:37.990Z,63.90
2022-12-26T10:48:36.377Z,71.63
2022-12-26T10:49:36.374Z,63.84
2022-12-26T10:50:37.894Z,64.82
2022-12-26T10:51:36.358Z,66.34
2022-12-26T10:52:36.347Z,64.96
2022-12-26T10:53:36.341Z,65.75
2022-12-26T10:54:36.346Z,65.81
2022-12-26T10:55:36.337Z,66.07
2022-12-26T10:56:36.323Z,64.16
2022-12-26T10:57:36.314Z,65.70
2022-12-26T10:58:36.312Z,65.16
2022-12-26T10:59:36.355Z,64.27
2022-12-26T11:00:36.282Z,65.62
2022-12-26T11:01:36.456Z,67.91
2022-12-26T11:02:37.508Z,64.15
2022-12-26T11:03:39.056Z,67.83
2022-12-26T11:06:09.579Z,67.15
2022-12-26T11:06:38.243Z,64.01
2022-12-26T11:07:36.233Z,62.22
2022-12-26T11:08:40.849Z,65.01
2022-12-26T11:09:38.947Z,67.98
2022-12-26T11:10:37.974Z,64.65
2022-12-26T11:11:36.206Z,64.09
2022-12-26T11:12:36.191Z,66.24
2022-12-26T11:13:36.969Z,63.87
2022-12-26T11:14:36.207Z,64.99
2022-12-26T11:15:36.302Z,68.64
2022-12-26T11:16:36.161Z,65.59
2022-12-26T11:17:36.149Z,65.65
2022-12-26T11:18:36.155Z,66.58
2022-12-26T11:19:36.138Z,67.22
2022-12-26T11:20:36.122Z,66.21
2022-12-26T11:21:36.106Z,66.67
2022-12-26T11:22:37.131Z,64.94
2022-12-26T11:23:36.107Z,63.34
2022-12-26T11:24:36.103Z,68.01
2022-12-26T11:25:36.078Z,64.32
2022-12-26T11:26:36.077Z,61.92
2022-12-26T11:27:36.059Z,64.72
2022-12-26T11:28:37.003Z,65.03
2022-12-26T11:31:42.927Z,63.64
2022-12-26T11:32:42.881Z,67.72
2022-12-26T11:33:42.883Z,66.31
2022-12-26T11:34:42.865Z,64.66
2022-12-26T11:35:49.910Z,60.74
2022-12-26T11:36:48.755Z,63.10
2022-12-26T11:37:43.939Z,65.84
2022-12-26T11:40:56.623Z,65.44
2022-12-26T11:41:55.708Z,62.99
2022-12-26T11:42:55.699Z,62.65
2022-12-26T11:43:55.684Z,65.09
2022-12-26T11:44:58.571Z,60.40
2022-12-26T11:45:56.750Z,64.89
2022-12-26T11:46:57.796Z,62.76
2022-12-26T11:47:56.772Z,65.84
2022-12-26T11:48:56.742Z,65.69
2022-12-26T11:49:56.732Z,66.17
2022-12-26T11:50:56.724Z,61.54
2022-12-26T11:51:59.600Z,64.69
2022-12-26T11:52:57.717Z,66.94
2022-12-26T11:56:04.633Z,65.90
2022-12-26T11:57:05.726Z,61.29
2022-12-26T11:58:05.714Z,60.85
2022-12-26T11:59:05.701Z,63.15
2022-12-26T12:00:15.349Z,67.36
2022-12-26T12:01:05.944Z,63.56
2022-12-26T12:02:05.757Z,66.24
2022-12-26T12:03:05.711Z,65.84
2022-12-26T12:04:05.697Z,62.42
2022-12-26T12:05:09.351Z,66.89
2022-12-26T12:06:05.662Z,65.11
2022-12-26T12:07:05.650Z,61.16
2022-12-26T12:08:05.645Z,65.93
2022-12-26T12:09:06.483Z,64.10
2022-12-26T12:10:38.348Z,63.02
2022-12-26T12:11:05.641Z,65.04
2022-12-26T12:12:05.595Z,64.97
2022-12-26T12:13:06.602Z,63.84
2022-12-26T12:14:06.440Z,65.78
2022-12-26T12:15:05.578Z,65.61
2022-12-26T12:16:05.635Z,62.04
2022-12-26T12:17:05.583Z,64.64
2022-12-26T12:18:05.575Z,62.87
2022-12-26T12:19:05.548Z,65.58
2022-12-26T12:20:05.550Z,65.14
2022-12-26T12:21:05.546Z,67.41
2022-12-26T12:22:05.534Z,64.76
2022-12-26T12:23:05.515Z,63.31
2022-12-26T12:24:05.512Z,62.56
2022-12-26T12:25:05.512Z,65.57
2022-12-26T12:26:05.503Z,64.21
2022-12-26T12:27:06.441Z,65.28
2022-12-26T12:28:05.513Z,61.60
2022-12-26T12:29:06.364Z,62.88
2022-12-26T12:30:05.464Z,63.33
2022-12-26T12:31:05.473Z,61.71
2022-12-26T12:32:05.469Z,65.18
2022-12-26T12:33:05.528Z,66.30
2022-12-26T12:34:05.421Z,62.56
2022-12-26T12:35:05.417Z,62.11
2022-12-26T12:36:05.436Z,63.05
2022-12-26T12:37:06.673Z,62.29
2022-12-26T12:38:05.408Z,66.91
2022-12-26T12:39:05.399Z,61.94
2022-12-26T12:40:05.388Z,63.70
2022-12-26T12:41:05.401Z,63.21
2022-12-26T12:42:05.771Z,65.00
2022-12-26T12:43:06.368Z,64.61
2022-12-26T12:44:05.351Z,65.13
2022-12-26T12:45:05.334Z,64.15
2022-12-26T12:46:05.369Z,62.17
2022-12-26T12:47:05.340Z,65.73
2022-12-26T12:48:05.325Z,65.47
2022-12-26T12:49:05.306Z,65.19
2022-12-26T12:50:05.310Z,62.83
2022-12-26T12:51:05.289Z,62.34
2022-12-26T12:52:05.303Z,59.76
2022-12-26T12:53:05.287Z,62.33
2022-12-26T12:54:05.290Z,64.22
2022-12-26T12:55:05.261Z,62.29
2022-12-26T12:56:05.260Z,64.37
2022-12-26T12:57:05.247Z,64.04
2022-12-26T12:58:05.240Z,59.34
2022-12-26T12:59:05.221Z,63.41
2022-12-26T13:00:05.220Z,63.94
2022-12-26T13:01:05.323Z,61.77
2022-12-26T13:02:09.656Z,63.31
2022-12-26T13:03:07.231Z,66.34
2022-12-26T13:04:05.190Z,61.50
2022-12-26T13:05:05.380Z,62.42
2022-12-26T13:06:05.168Z,64.84
2022-12-26T13:07:05.863Z,63.33
2022-12-26T13:08:05.181Z,65.26